Mazeppa, MN

6:02 AM CST on February 09, 2016 (GMT -0600)
APRSWXNET | | Change Station
CLOSE
Current Station
Personal Weather Station
Location: Mazeppa, MN
Elevation: 941 ft
Nearby Weather Stations

Elev 941 ft 44.27 °N, 92.55 °W | Updated 3 hours ago

Mostly Cloudy
Mostly Cloudy
9 °F
Feels Like -2 °F
N
7
Wind Variable Wind from ENE
Gusts 0.0 mph

Today
High -- | Low -- °F
--% Chance of Precip.
Yesterday
High -- | Low -- °F
Precip. -- in
Pressure 29.98 in
Visibility 10.0 miles
Clouds Overcast 2100 ft
Windchill -2 °F
Dew Point 1 °F
Humidity 70%
Rainfall in
Snow Depth Not available.
7:18 AM 5:30 PM
New Moon, 1% visible
METAR K9MN 091152Z AUTO 30013G20KT 220V320 10SM OVC021 M14/M17 A2998 RMK AO1 T11401171 11112 21140
Pressure 29.98 in
Visibility 10.0 miles
Clouds Overcast 2100 ft
Windchill -2 °F
Dew Point 1 °F
Humidity 70%
Rainfall in
Snow Depth Not available.
7:18 AM 5:30 PM
New Moon, 1% visible
METAR K9MN 091152Z AUTO 30013G20KT 220V320 10SM OVC021 M14/M17 A2998 RMK AO1 T11401171 11112 21140

10-Day Weather Forecast

Almanac

Astronomy

Feb. 09, 2016 Rise Set
Actual Time
Civil Twilight
Nautical Twilight
Astronomical Twilight
Moon
Length of Visible Light
Length of Day
Tomorrow will be .
, % of the Moon is Illuminated

Today's Extremes

State Highs State Lows

Community

WunderPhotos

Upload Photos

1,891,565 photos uploaded!

WunderBlog® & News

Nearby

Air Quality

  Air Quality AQ Index Pollutant
Not available.

Snow Depth

Station Depth Elevation

Earthquake Activity

City Distance Mag. Time & Date
Minimum magnitude displayed is 2.5.

Coastal Water Temperatures

Place Temperature

Stations

Nearby Weather Stations

Station Location Temp. Windchill Dew Point Humidity Wind Precip. Elev Updated Type
                   

Watches & Warnings

There are currently no watches in effect.